createdAt,value
2023-02-07T00:02:22.119Z,98996.06
2023-02-07T00:04:51.270Z,99011.13
2023-02-07T00:07:17.899Z,99003.25
2023-02-07T00:09:44.697Z,98999.78
2023-02-07T00:12:14.276Z,99004.91
2023-02-07T00:14:40.929Z,98995.59
2023-02-07T00:17:07.802Z,99013.38
2023-02-07T00:19:37.844Z,99016.22
2023-02-07T00:22:04.488Z,99021.38
2023-02-07T00:24:33.982Z,99017.19
2023-02-07T00:27:03.940Z,99020.28
2023-02-07T00:29:30.554Z,99021.03
2023-02-07T00:31:57.509Z,99015.63
2023-02-07T00:34:24.245Z,99006.84
2023-02-07T00:36:50.847Z,99011.47
2023-02-07T00:39:18.695Z,99003.84
2023-02-07T00:41:45.691Z,98998.09
2023-02-07T00:44:12.483Z,99002.75
2023-02-07T00:46:39.389Z,99003.00
2023-02-07T00:49:07.192Z,99006.69
2023-02-07T00:51:34.276Z,99009.31
2023-02-07T00:54:01.275Z,99014.78
2023-02-07T00:56:29.724Z,99004.66
2023-02-07T00:58:59.309Z,99006.91
2023-02-07T01:01:27.679Z,99008.94
2023-02-07T01:03:55.131Z,99004.03
2023-02-07T01:06:21.915Z,99006.16
2023-02-07T01:08:48.664Z,99002.44
2023-02-07T01:11:16.770Z,98990.88
2023-02-07T01:13:46.515Z,99001.47
2023-02-07T01:16:26.274Z,99007.44
2023-02-07T01:18:53.455Z,99014.78
2023-02-07T01:21:23.502Z,99013.34
2023-02-07T01:23:51.227Z,99012.88
2023-02-07T01:26:18.162Z,99015.84
2023-02-07T01:28:47.556Z,99013.53
2023-02-07T01:31:14.574Z,98994.22
2023-02-07T01:33:41.520Z,99005.31
2023-02-07T01:36:13.279Z,99017.34
2023-02-07T01:38:40.682Z,99015.69
2023-02-07T01:41:07.978Z,99019.25
2023-02-07T01:44:01.749Z,99014.00
2023-02-07T01:46:29.526Z,99014.00
2023-02-07T01:48:59.896Z,99004.94
2023-02-07T01:51:28.201Z,99014.09
2023-02-07T01:54:01.824Z,99012.56
2023-02-07T01:56:31.940Z,99008.38
2023-02-07T01:59:05.836Z,99001.78
2023-02-07T02:01:33.296Z,99006.09
2023-02-07T02:03:59.986Z,98989.38
2023-02-07T02:06:54.338Z,98994.00
2023-02-07T02:09:21.112Z,98996.75
2023-02-07T02:12:06.914Z,98994.34
2023-02-07T02:14:50.902Z,98996.56
2023-02-07T02:17:28.203Z,98991.44
2023-02-07T02:20:28.856Z,98992.59
2023-02-07T02:23:14.111Z,98998.09
2023-02-07T02:26:17.530Z,98986.38
2023-02-07T02:29:02.450Z,98989.72
2023-02-07T02:31:47.004Z,98993.38
2023-02-07T02:34:22.744Z,98993.63
2023-02-07T02:37:07.377Z,98997.28
2023-02-07T02:40:10.431Z,99001.78
2023-02-07T02:42:46.112Z,99002.03
2023-02-07T02:45:18.634Z,99001.06
2023-02-07T02:47:48.308Z,99000.03
2023-02-07T02:50:21.391Z,99000.13
2023-02-07T02:52:51.048Z,98993.72
2023-02-07T02:55:29.351Z,98998.09
2023-02-07T02:58:04.755Z,99009.88
2023-02-07T03:01:06.211Z,99008.63
2023-02-07T03:03:47.888Z,99004.72
2023-02-07T03:06:48.850Z,98997.34
2023-02-07T03:09:21.990Z,98990.94
2023-02-07T03:12:14.050Z,98959.47
2023-02-07T03:15:24.223Z,98988.25
2023-02-07T03:18:32.531Z,98985.19
2023-02-07T03:21:15.620Z,98982.78
2023-02-07T03:23:46.731Z,98986.50
2023-02-07T03:26:14.115Z,98994.03
2023-02-07T03:28:45.367Z,98995.34
2023-02-07T03:31:17.248Z,98996.94
2023-02-07T03:33:48.868Z,98994.19
2023-02-07T03:36:50.083Z,98999.81
2023-02-07T03:39:17.056Z,99002.91
2023-02-07T03:41:53.116Z,99004.34
2023-02-07T03:44:23.129Z,99006.88
2023-02-07T03:46:51.154Z,99005.06
2023-02-07T03:49:23.710Z,99013.06
2023-02-07T03:51:51.845Z,99014.59
2023-02-07T03:54:18.628Z,99007.69
2023-02-07T03:56:45.583Z,99008.66
2023-02-07T03:59:12.197Z,98995.53
2023-02-07T04:01:43.598Z,98990.53
2023-02-07T04:04:11.083Z,98985.28
2023-02-07T04:06:40.744Z,98990.63
2023-02-07T04:09:11.864Z,98996.72
2023-02-07T04:11:47.725Z,98996.94
2023-02-07T04:14:15.616Z,98985.88
2023-02-07T04:16:45.319Z,98986.81
2023-02-07T04:19:15.324Z,98989.19
2023-02-07T04:21:44.253Z,98998.97
2023-02-07T04:24:11.605Z,98993.81
2023-02-07T04:26:42.263Z,99000.75
2023-02-07T04:29:09.221Z,98997.19
2023-02-07T04:31:37.684Z,98992.16
2023-02-07T04:34:06.263Z,98995.63
2023-02-07T04:36:32.942Z,98997.78
2023-02-07T04:38:59.574Z,99000.28
2023-02-07T04:41:26.281Z,99001.25
2023-02-07T04:43:53.154Z,99006.34
2023-02-07T04:46:23.179Z,99011.38
2023-02-07T04:48:50.253Z,99013.16
2023-02-07T04:51:16.959Z,99024.38
2023-02-07T04:53:43.609Z,99030.47
2023-02-07T04:56:10.794Z,99016.59
2023-02-07T04:58:37.851Z,99041.16
2023-02-07T05:01:04.592Z,99038.41
2023-02-07T05:03:31.594Z,99040.59
2023-02-07T05:05:58.232Z,99031.78
2023-02-07T05:08:26.270Z,99035.34
2023-02-07T05:10:57.048Z,99040.59
2023-02-07T05:13:24.896Z,99035.69
2023-02-07T05:15:51.843Z,99032.84
2023-02-07T05:18:18.890Z,99026.19
2023-02-07T05:20:45.621Z,99040.59
2023-02-07T05:23:12.323Z,99039.75
2023-02-07T05:25:41.171Z,99038.81
2023-02-07T05:28:07.997Z,99043.22
2023-02-07T05:30:34.716Z,99045.63
2023-02-07T05:33:04.623Z,99046.31
2023-02-07T05:35:36.999Z,99055.03
2023-02-07T05:38:07.663Z,99031.03
2023-02-07T05:40:38.523Z,99054.44
2023-02-07T05:43:05.414Z,99058.84
2023-02-07T05:45:32.829Z,99054.66
2023-02-07T05:47:59.760Z,99062.19
2023-02-07T05:50:26.933Z,99056.81
2023-02-07T05:52:53.699Z,99050.84
2023-02-07T05:55:20.401Z,99052.91
2023-02-07T05:57:47.265Z,99052.69
2023-02-07T06:00:16.534Z,99062.38
2023-02-07T06:02:43.858Z,99063.81
2023-02-07T06:05:17.404Z,99059.03
2023-02-07T06:07:44.410Z,99044.63
2023-02-07T06:10:11.448Z,99050.34
2023-02-07T06:12:38.549Z,99051.69
2023-02-07T06:15:05.792Z,99049.75
2023-02-07T06:17:32.552Z,99034.38
2023-02-07T06:19:59.303Z,99056.44
2023-02-07T06:22:25.974Z,99046.81
2023-02-07T06:24:52.674Z,99050.31
2023-02-07T06:27:19.441Z,99056.06
2023-02-07T06:29:46.287Z,99046.16
2023-02-07T06:32:12.947Z,99043.78
2023-02-07T06:34:39.681Z,99035.66
2023-02-07T06:37:06.317Z,99048.78
2023-02-07T06:39:32.972Z,99041.59
2023-02-07T06:41:59.780Z,99035.41
2023-02-07T06:44:26.780Z,99041.31
2023-02-07T06:46:53.410Z,99047.06
2023-02-07T06:49:20.082Z,99041.31
2023-02-07T06:51:46.823Z,99062.69
2023-02-07T06:54:13.702Z,99049.06
2023-02-07T06:56:40.439Z,99048.53
2023-02-07T06:59:07.100Z,99045.28
2023-02-07T07:01:33.901Z,99043.97
2023-02-07T07:04:00.779Z,99042.88
2023-02-07T07:06:27.398Z,99042.84
2023-02-07T07:08:54.074Z,99045.53
2023-02-07T07:11:20.804Z,99047.41
2023-02-07T07:13:47.719Z,99060.06
2023-02-07T07:16:14.731Z,99067.31
2023-02-07T07:18:41.612Z,99069.44
2023-02-07T07:21:08.807Z,99061.16
2023-02-07T07:23:36.140Z,99055.25
2023-02-07T07:26:02.968Z,99054.03
2023-02-07T07:28:30.313Z,99053.50
2023-02-07T07:31:03.746Z,99054.53
2023-02-07T07:33:30.715Z,99052.03
2023-02-07T07:35:58.541Z,99058.44
2023-02-07T07:38:25.548Z,99051.25
2023-02-07T07:40:52.446Z,99050.03
2023-02-07T07:43:19.448Z,99050.44
2023-02-07T07:45:51.550Z,99060.47
2023-02-07T07:48:18.343Z,99054.22
2023-02-07T07:50:44.961Z,99050.38
2023-02-07T07:53:11.744Z,99056.97
2023-02-07T07:55:38.607Z,99052.44
2023-02-07T07:58:05.376Z,99040.91
2023-02-07T08:00:32.244Z,99051.19
2023-02-07T08:02:59.070Z,99047.31
2023-02-07T08:05:25.813Z,99051.50
2023-02-07T08:07:52.749Z,99039.72
2023-02-07T08:10:19.341Z,99043.34
2023-02-07T08:12:46.058Z,99042.09
2023-02-07T08:15:14.085Z,99045.72
2023-02-07T08:17:40.714Z,99044.06
2023-02-07T08:20:07.836Z,99042.41
2023-02-07T08:22:34.670Z,99048.38
2023-02-07T08:25:01.447Z,99037.53
2023-02-07T08:27:28.106Z,99031.28
2023-02-07T08:29:54.781Z,99044.34
2023-02-07T08:32:21.408Z,99050.19
2023-02-07T08:34:48.028Z,99050.84
2023-02-07T08:37:14.972Z,99049.06
2023-02-07T08:39:41.865Z,99034.44
2023-02-07T08:42:09.610Z,99049.28
2023-02-07T08:44:37.138Z,99048.41
2023-02-07T08:47:04.254Z,99047.84
2023-02-07T08:49:31.072Z,99050.28
2023-02-07T08:51:57.837Z,99040.53
2023-02-07T08:54:24.521Z,99042.00
2023-02-07T08:56:51.192Z,99032.50
2023-02-07T08:59:17.965Z,99015.25
2023-02-07T09:01:44.690Z,99024.56
2023-02-07T09:04:11.692Z,99022.47
2023-02-07T09:06:38.946Z,99030.47
2023-02-07T09:09:06.610Z,99025.72
2023-02-07T09:11:33.827Z,99035.88
2023-02-07T09:14:00.678Z,99030.59
2023-02-07T09:16:27.720Z,99028.72
2023-02-07T09:18:54.624Z,99024.94
2023-02-07T09:21:21.840Z,99027.38
2023-02-07T09:23:48.576Z,99024.44
2023-02-07T09:26:20.446Z,99018.16
2023-02-07T09:28:47.308Z,99003.72
2023-02-07T09:31:15.934Z,99010.44
2023-02-07T09:33:43.369Z,99001.72
2023-02-07T09:36:28.395Z,99009.13
2023-02-07T09:38:55.850Z,99005.94
2023-02-07T09:41:39.543Z,98999.97
2023-02-07T09:44:32.833Z,98996.34
2023-02-07T09:47:04.127Z,98987.94
2023-02-07T09:49:36.305Z,99003.63
2023-02-07T09:52:06.252Z,98995.38
2023-02-07T09:54:40.769Z,98992.06
2023-02-07T09:57:19.740Z,98973.03
2023-02-07T09:59:54.574Z,98989.72
2023-02-07T10:02:30.498Z,98988.44
2023-02-07T10:05:02.878Z,98980.50
2023-02-07T10:07:30.821Z,98977.69
2023-02-07T10:09:57.687Z,98984.88
2023-02-07T10:12:43.807Z,98983.28
2023-02-07T10:15:17.166Z,98992.66
2023-02-07T10:18:02.038Z,98993.09
2023-02-07T10:20:52.198Z,98994.34
2023-02-07T10:23:34.655Z,98997.09
2023-02-07T10:26:24.447Z,98999.34
2023-02-07T10:29:08.396Z,98989.66
2023-02-07T10:31:38.929Z,98982.44
2023-02-07T10:34:14.412Z,98990.78
2023-02-07T10:36:46.556Z,98986.34
2023-02-07T10:39:51.210Z,98988.88
2023-02-07T10:42:20.215Z,98989.06
2023-02-07T10:44:47.569Z,98979.31
2023-02-07T10:47:17.489Z,98969.53
2023-02-07T10:49:51.460Z,98965.75
2023-02-07T10:52:29.205Z,98961.75
2023-02-07T10:54:59.117Z,98961.63
2023-02-07T10:57:27.863Z,98961.63
2023-02-07T11:00:23.772Z,98964.59
2023-02-07T11:02:52.863Z,98958.13
2023-02-07T11:05:20.894Z,98953.97
2023-02-07T11:07:57.056Z,98943.03
2023-02-07T11:10:25.948Z,98951.69
2023-02-07T11:12:57.928Z,98947.53
2023-02-07T11:15:32.920Z,98946.69
2023-02-07T11:17:59.995Z,98937.22
2023-02-07T11:20:34.206Z,98943.41
2023-02-07T11:23:03.841Z,98941.88
2023-02-07T11:25:33.072Z,98932.78
2023-02-07T11:27:59.799Z,98932.94
2023-02-07T11:30:29.666Z,98931.78
2023-02-07T11:33:03.774Z,98928.94
2023-02-07T11:35:30.750Z,98934.41
2023-02-07T11:38:14.558Z,98929.09
2023-02-07T11:40:44.062Z,98921.13
2023-02-07T11:43:13.918Z,98936.41
2023-02-07T11:45:45.176Z,98927.06
2023-02-07T11:48:24.486Z,98920.72
2023-02-07T11:50:57.091Z,98928.06
2023-02-07T11:53:48.612Z,98915.75
2023-02-07T11:56:45.721Z,98916.25
2023-02-07T11:59:17.141Z,98922.41
2023-02-07T12:01:50.849Z,98919.91
2023-02-07T12:04:19.527Z,98930.38
2023-02-07T12:07:08.358Z,98913.44
2023-02-07T12:09:54.716Z,98922.06
2023-02-07T12:12:39.787Z,98915.06
2023-02-07T12:15:18.085Z,98906.72
2023-02-07T12:18:06.721Z,98922.00
2023-02-07T12:20:38.819Z,98907.38
2023-02-07T12:23:48.038Z,98899.09
2023-02-07T12:26:26.343Z,98901.56
2023-02-07T12:29:38.472Z,98908.06
2023-02-07T12:32:07.984Z,98910.19
2023-02-07T12:34:41.525Z,98908.22
2023-02-07T12:37:14.154Z,98903.34
2023-02-07T12:39:53.034Z,98905.81
2023-02-07T12:42:39.073Z,98911.25
2023-02-07T12:45:13.717Z,98905.84
2023-02-07T12:48:01.882Z,98897.94
2023-02-07T12:50:55.025Z,98903.69
2023-02-07T12:54:15.815Z,98902.47
2023-02-07T12:56:46.907Z,98897.97
2023-02-07T12:59:33.986Z,98903.06
2023-02-07T13:02:24.547Z,98904.22
2023-02-07T13:05:18.761Z,98899.38
2023-02-07T13:07:52.355Z,98898.22
2023-02-07T13:10:41.047Z,98893.72
2023-02-07T13:13:23.701Z,98901.81
2023-02-07T13:16:02.539Z,98890.69
2023-02-07T13:18:38.101Z,98889.34
2023-02-07T13:21:18.098Z,98883.66
2023-02-07T13:23:47.577Z,98880.19
2023-02-07T13:26:19.987Z,98885.25
2023-02-07T13:29:07.379Z,98883.38
2023-02-07T13:31:40.009Z,98883.47
2023-02-07T13:34:15.667Z,98884.13
2023-02-07T13:36:45.138Z,98886.13
2023-02-07T13:39:36.549Z,98884.81
2023-02-07T13:42:06.618Z,98890.34
2023-02-07T13:44:57.591Z,98883.19
2023-02-07T13:48:01.803Z,98894.19
2023-02-07T13:50:47.484Z,98884.22
2023-02-07T13:53:48.036Z,98895.97
2023-02-07T13:56:34.404Z,98888.19
2023-02-07T13:59:20.796Z,98884.09
2023-02-07T14:01:54.440Z,98885.72
2023-02-07T14:04:56.140Z,98877.31
2023-02-07T14:07:31.601Z,98887.31
2023-02-07T14:09:59.100Z,98885.69
2023-02-07T14:12:30.192Z,98889.66
2023-02-07T14:15:29.325Z,98888.84
2023-02-07T14:18:02.632Z,98889.03
2023-02-07T14:20:38.644Z,98886.69
2023-02-07T14:23:08.465Z,98877.22
2023-02-07T14:25:35.012Z,98879.41
2023-02-07T14:28:04.990Z,98882.78
2023-02-07T14:30:56.134Z,98880.47
2023-02-07T14:33:32.661Z,98885.28
2023-02-07T14:36:21.488Z,98883.59
2023-02-07T14:39:20.482Z,98885.63
2023-02-07T14:41:49.307Z,98880.84
2023-02-07T14:44:32.976Z,98879.69
2023-02-07T14:47:01.265Z,98876.38
2023-02-07T14:49:51.438Z,98879.72
2023-02-07T14:52:31.446Z,98879.22
2023-02-07T14:55:02.984Z,98880.88
2023-02-07T14:57:38.770Z,98883.84
2023-02-07T15:00:14.672Z,98890.03
2023-02-07T15:02:47.835Z,98886.03
2023-02-07T15:05:26.986Z,98879.91
2023-02-07T15:08:18.414Z,98882.59
2023-02-07T15:11:04.199Z,98876.13
2023-02-07T15:13:43.919Z,98878.28
2023-02-07T15:16:24.530Z,98887.59
2023-02-07T15:18:56.758Z,98891.75
2023-02-07T15:21:30.135Z,98890.25
2023-02-07T15:24:19.528Z,98896.06
2023-02-07T15:27:00.438Z,98901.19
2023-02-07T15:29:37.935Z,98912.00
2023-02-07T15:32:49.368Z,98909.84
2023-02-07T15:35:37.022Z,98903.88
2023-02-07T15:38:17.320Z,98911.19
2023-02-07T15:40:44.235Z,98918.50
2023-02-07T15:43:23.957Z,98920.16
2023-02-07T15:46:07.907Z,98916.34
2023-02-07T15:48:50.933Z,98922.97
2023-02-07T15:51:20.610Z,98927.47
2023-02-07T15:53:53.133Z,98921.47
2023-02-07T15:56:19.994Z,98914.16
2023-02-07T15:58:48.235Z,98927.78
2023-02-07T16:01:27.535Z,98932.91
2023-02-07T16:03:58.361Z,98940.72
2023-02-07T16:06:31.077Z,98936.06
2023-02-07T16:09:00.544Z,98940.38
2023-02-07T16:11:28.322Z,98944.69
2023-02-07T16:14:17.504Z,98943.34
2023-02-07T16:16:50.590Z,98944.38
2023-02-07T16:19:29.555Z,98957.97
2023-02-07T16:22:10.123Z,98963.91
2023-02-07T16:24:39.424Z,98950.47
2023-02-07T16:27:07.284Z,98955.28
2023-02-07T16:29:36.316Z,98962.44
2023-02-07T16:32:03.226Z,98966.56
2023-02-07T16:34:30.363Z,98967.41
2023-02-07T16:36:57.514Z,98958.97
2023-02-07T16:39:24.352Z,98965.09
2023-02-07T16:41:55.815Z,98961.28
2023-02-07T16:44:24.682Z,98962.25
2023-02-07T16:46:51.839Z,98951.00
2023-02-07T16:49:24.336Z,98960.94
2023-02-07T16:51:51.298Z,98958.28
2023-02-07T16:54:18.750Z,98959.78
2023-02-07T16:56:48.067Z,98959.78
2023-02-07T16:59:23.762Z,98958.28
2023-02-07T17:01:52.954Z,98966.59
2023-02-07T17:04:20.462Z,98967.59
2023-02-07T17:06:48.134Z,98969.59
2023-02-07T17:09:24.174Z,98966.59
2023-02-07T17:11:54.804Z,98960.94
2023-02-07T17:14:22.204Z,98971.56
2023-02-07T17:16:49.272Z,98969.72
2023-02-07T17:19:24.000Z,98975.53
2023-02-07T17:21:52.142Z,98966.72
2023-02-07T17:24:19.040Z,98977.16
2023-02-07T17:26:50.454Z,98973.00
2023-02-07T17:29:18.331Z,98973.00
2023-02-07T17:31:46.033Z,98958.59
2023-02-07T17:34:13.297Z,98947.59
2023-02-07T17:36:45.205Z,98961.91
2023-02-07T17:39:14.299Z,98970.53
2023-02-07T17:41:40.897Z,98973.19
2023-02-07T17:44:07.915Z,98973.34
2023-02-07T17:46:35.100Z,98971.66
2023-02-07T17:49:02.180Z,98973.69
2023-02-07T17:51:29.350Z,98982.28
2023-02-07T17:53:56.799Z,98977.78
2023-02-07T17:56:24.792Z,98979.31
2023-02-07T17:58:53.326Z,98977.97
2023-02-07T18:01:20.383Z,98970.16
2023-02-07T18:03:48.465Z,98983.75
2023-02-07T18:06:16.991Z,98983.25
2023-02-07T18:08:45.108Z,98981.75
2023-02-07T18:11:14.302Z,98984.72
2023-02-07T18:13:42.241Z,98988.38
2023-02-07T18:16:13.202Z,98986.03
2023-02-07T18:18:40.061Z,98992.47
2023-02-07T18:21:07.080Z,98990.81
2023-02-07T18:23:33.984Z,98983.03
2023-02-07T18:26:00.870Z,98985.00
2023-02-07T18:28:28.323Z,98991.13
2023-02-07T18:30:55.006Z,98987.81
2023-02-07T18:33:21.705Z,98980.31
2023-02-07T18:35:51.412Z,98986.47
2023-02-07T18:38:18.482Z,99005.69
2023-02-07T18:40:45.083Z,98994.75
2023-02-07T18:43:11.697Z,98998.22
2023-02-07T18:45:42.245Z,98991.28
2023-02-07T18:48:09.542Z,98985.44
2023-02-07T18:50:36.514Z,98984.28
2023-02-07T18:53:05.386Z,98971.69
2023-02-07T18:55:32.125Z,98990.91
2023-02-07T18:57:58.971Z,98977.81
2023-02-07T19:00:25.841Z,98980.94
2023-02-07T19:02:52.466Z,98983.09
2023-02-07T19:05:20.667Z,98978.09
2023-02-07T19:07:47.658Z,98977.41
2023-02-07T19:10:16.561Z,98978.41
2023-02-07T19:12:43.242Z,98978.88
2023-02-07T19:15:10.229Z,98967.06
2023-02-07T19:17:36.860Z,98977.31
2023-02-07T19:20:03.535Z,98982.09
2023-02-07T19:22:35.651Z,98976.44
2023-02-07T19:25:03.048Z,98975.78
2023-02-07T19:27:29.664Z,98984.03
2023-02-07T19:29:56.524Z,98977.69
2023-02-07T19:32:23.209Z,98986.63
2023-02-07T19:34:50.150Z,98986.09
2023-02-07T19:37:16.875Z,98990.72
2023-02-07T19:39:46.139Z,98976.13
2023-02-07T19:42:12.848Z,98979.25
2023-02-07T19:44:39.555Z,98977.38
2023-02-07T19:47:06.264Z,98983.66
2023-02-07T19:49:32.882Z,98975.31
2023-02-07T19:51:59.577Z,98985.09
2023-02-07T19:54:26.422Z,98991.38
2023-02-07T19:56:53.160Z,98980.56
2023-02-07T19:59:19.834Z,98987.97
2023-02-07T20:01:46.515Z,98986.75
2023-02-07T20:04:13.322Z,98996.81
2023-02-07T20:06:40.140Z,98991.75
2023-02-07T20:09:07.614Z,98993.34
2023-02-07T20:11:35.086Z,98997.59
2023-02-07T20:14:06.803Z,98989.56
2023-02-07T20:16:36.746Z,98998.47
2023-02-07T20:19:06.766Z,98998.13
2023-02-07T20:21:35.773Z,99001.19
2023-02-07T20:24:03.161Z,98995.97
2023-02-07T20:26:33.395Z,98989.63
2023-02-07T20:29:02.177Z,98996.03
2023-02-07T20:31:32.159Z,98995.63
2023-02-07T20:33:59.598Z,98987.63
2023-02-07T20:36:28.047Z,98990.16
2023-02-07T20:38:58.034Z,98986.47
2023-02-07T20:41:31.449Z,98997.63
2023-02-07T20:44:07.482Z,98989.06
2023-02-07T20:46:36.204Z,99005.91
2023-02-07T20:49:12.329Z,98995.22
2023-02-07T20:51:40.163Z,98997.88
2023-02-07T20:54:07.282Z,99000.97
2023-02-07T20:56:34.420Z,98997.66
2023-02-07T20:59:01.178Z,99007.66
2023-02-07T21:01:30.483Z,99004.31
2023-02-07T21:03:59.985Z,99005.59
2023-02-07T21:06:27.827Z,98994.63
2023-02-07T21:09:01.207Z,99003.25
2023-02-07T21:11:48.810Z,98997.81
2023-02-07T21:14:19.723Z,99004.63
2023-02-07T21:16:46.674Z,99009.50
2023-02-07T21:19:14.838Z,99008.78
2023-02-07T21:21:42.673Z,99009.34
2023-02-07T21:24:10.145Z,99014.06
2023-02-07T21:26:36.964Z,99024.91
2023-02-07T21:29:05.438Z,99023.34
2023-02-07T21:31:34.885Z,99032.25
2023-02-07T21:34:03.604Z,99029.75
2023-02-07T21:36:33.419Z,99029.88
2023-02-07T21:39:04.880Z,99031.00
2023-02-07T21:41:31.822Z,99030.00
2023-02-07T21:43:59.942Z,99030.84
2023-02-07T21:46:30.206Z,99033.84
2023-02-07T21:49:01.485Z,99040.38
2023-02-07T21:51:30.223Z,99042.88
2023-02-07T21:53:57.847Z,99050.66
2023-02-07T21:56:30.260Z,99055.63
2023-02-07T21:59:02.739Z,99060.44
2023-02-07T22:01:31.133Z,99063.34
2023-02-07T22:04:00.148Z,99065.56
2023-02-07T22:06:28.402Z,99077.34
2023-02-07T22:08:57.557Z,99073.69
2023-02-07T22:11:26.021Z,99084.59
2023-02-07T22:13:53.768Z,99075.56
2023-02-07T22:16:23.173Z,99074.88
2023-02-07T22:18:52.203Z,99076.69
2023-02-07T22:21:25.049Z,99081.13
2023-02-07T22:23:52.312Z,99090.94
2023-02-07T22:26:19.063Z,99080.47
2023-02-07T22:28:46.733Z,99086.47
2023-02-07T22:31:19.458Z,99090.28
2023-02-07T22:33:47.207Z,99091.41
2023-02-07T22:36:16.658Z,99090.81
2023-02-07T22:38:43.529Z,99084.66
2023-02-07T22:41:10.822Z,99092.13
2023-02-07T22:43:39.728Z,99080.91
2023-02-07T22:46:08.799Z,99087.50
2023-02-07T22:48:36.196Z,99089.31
2023-02-07T22:51:34.193Z,99092.34
2023-02-07T22:54:10.240Z,99089.13
2023-02-07T22:56:38.106Z,99097.41
2023-02-07T22:59:05.881Z,99093.47
2023-02-07T23:01:35.510Z,99095.66
2023-02-07T23:04:03.980Z,99091.97
2023-02-07T23:06:32.682Z,99085.44
2023-02-07T23:09:00.433Z,99088.91
2023-02-07T23:11:27.138Z,99103.47
2023-02-07T23:13:54.040Z,99093.19
2023-02-07T23:16:24.472Z,99094.69
2023-02-07T23:18:53.238Z,99102.09
2023-02-07T23:21:22.233Z,99099.94
2023-02-07T23:23:49.655Z,99102.69
2023-02-07T23:26:18.978Z,99112.25
2023-02-07T23:28:45.635Z,99098.63
2023-02-07T23:31:14.800Z,99115.84
2023-02-07T23:33:41.825Z,99103.44
2023-02-07T23:36:09.219Z,99117.53
2023-02-07T23:38:36.402Z,99119.56
2023-02-07T23:41:03.247Z,99128.78
2023-02-07T23:43:30.222Z,99134.50
2023-02-07T23:45:57.199Z,99137.59
2023-02-07T23:48:23.870Z,99140.22
2023-02-07T23:50:59.270Z,99140.47
2023-02-07T23:53:26.040Z,99126.00
2023-02-07T23:55:55.364Z,99139.28
2023-02-07T23:58:26.456Z,99137.59
